Time;durP1;ratioP1;P1;durP2;ratioP2;P2;SDS_P1;SDS_P2;PMS_P1;PMS_P2;Temp;Humidity;BMP_temperature;BMP_pressure;BME280_temperature;BME280_humidity;BME280_pressure;Samples;Min_cycle;Max_cycle;Signal;HPM_P1;HPM_P2
2022/07/19 00:00:11;;;;;;;13.75;5.47;;;;;;;;;;5072413;28;20059;-63
2022/07/19 00:02:38;;;;;;;13.38;6.13;;;;;;;;;;5088259;28;20534;-62
2022/07/19 00:05:05;;;;;;;10.45;5.50;;;;;;;;;;5070430;28;20051;-62
2022/07/19 00:07:31;;;;;;;18.60;6.10;;;;;;;;;;5072568;28;20052;-61
2022/07/19 00:09:57;;;;;;;15.50;6.70;;;;;;;;;;5072139;28;20025;-63
2022/07/19 00:12:23;;;;;;;18.38;6.30;;;;;;;;;;5072085;28;20028;-63
2022/07/19 00:14:49;;;;;;;13.25;6.28;;;;;;;;;;5072352;28;20182;-62
2022/07/19 00:17:15;;;;;;;21.52;6.40;;;;;;;;;;5072129;28;20024;-63
2022/07/19 00:19:41;;;;;;;16.02;6.60;;;;;;;;;;5072196;28;20048;-63
2022/07/19 00:22:08;;;;;;;9.90;4.90;;;;;;;;;;5072131;28;20074;-62
2022/07/19 00:24:34;;;;;;;11.70;6.43;;;;;;;;;;5072199;28;20020;-62
2022/07/19 00:27:00;;;;;;;11.85;6.15;;;;;;;;;;5071748;28;20073;-62
2022/07/19 00:29:26;;;;;;;22.98;6.72;;;;;;;;;;5071001;28;20063;-62
2022/07/19 00:31:52;;;;;;;17.90;6.93;;;;;;;;;;5071993;28;20028;-62
2022/07/19 00:34:18;;;;;;;10.77;6.88;;;;;;;;;;5072231;28;20037;-62
2022/07/19 00:36:44;;;;;;;10.27;5.57;;;;;;;;;;5072140;28;20040;-62
2022/07/19 00:39:10;;;;;;;17.52;6.00;;;;;;;;;;5071992;28;20032;-62
2022/07/19 00:41:41;;;;;;;16.52;7.80;;;;;;;;;;5071941;28;20118;-62
2022/07/19 00:44:07;;;;;;;15.07;6.35;;;;;;;;;;5071936;28;20028;-62
2022/07/19 00:46:33;;;;;;;14.55;6.05;;;;;;;;;;5071993;28;20016;-62
2022/07/19 00:48:59;;;;;;;16.48;6.40;;;;;;;;;;5071970;28;20020;-62
2022/07/19 00:51:25;;;;;;;16.45;5.72;;;;;;;;;;5072000;28;20442;-62
2022/07/19 00:53:52;;;;;;;11.82;5.97;;;;;;;;;;5071981;28;20028;-62
2022/07/19 00:56:19;;;;;;;15.32;6.22;;;;;;;;;;5071657;28;20024;-62
2022/07/19 00:58:46;;;;;;;17.75;5.80;;;;;;;;;;5071947;28;20029;-62
2022/07/19 01:01:12;;;;;;;16.25;5.78;;;;;;;;;;5071718;28;20032;-62
2022/07/19 01:03:40;;;;;;;14.13;7.38;;;;;;;;;;5072083;28;20033;-62
2022/07/19 01:06:07;;;;;;;17.27;6.03;;;;;;;;;;5070541;28;20371;-63
2022/07/19 01:08:33;;;;;;;13.93;6.90;;;;;;;;;;5071695;28;20040;-63
2022/07/19 01:10:59;;;;;;;10.65;6.30;;;;;;;;;;5071368;28;20033;-63
2022/07/19 01:13:25;;;;;;;10.93;6.30;;;;;;;;;;5071868;28;20025;-63
2022/07/19 01:15:52;;;;;;;10.80;5.80;;;;;;;;;;5071682;28;20478;-63
2022/07/19 01:18:18;;;;;;;15.60;6.50;;;;;;;;;;5073581;28;20036;-63
2022/07/19 01:20:44;;;;;;;21.08;6.85;;;;;;;;;;5075420;28;20032;-62
2022/07/19 01:23:10;;;;;;;17.33;6.45;;;;;;;;;;5075104;28;20470;-62
2022/07/19 01:25:37;;;;;;;15.45;6.30;;;;;;;;;;5075115;28;20028;-62
2022/07/19 01:28:04;;;;;;;8.80;5.68;;;;;;;;;;5074980;28;20457;-62
2022/07/19 01:30:31;;;;;;;15.98;6.32;;;;;;;;;;5075080;28;20093;-62
2022/07/19 01:32:57;;;;;;;11.68;6.28;;;;;;;;;;5075179;28;20510;-62
2022/07/19 01:35:24;;;;;;;13.57;5.85;;;;;;;;;;5075002;28;20032;-63
2022/07/19 01:37:50;;;;;;;12.05;5.63;;;;;;;;;;5075120;28;20021;-62
2022/07/19 01:40:17;;;;;;;10.27;6.15;;;;;;;;;;5074728;28;20127;-62
2022/07/19 01:42:44;;;;;;;14.70;7.47;;;;;;;;;;5074972;28;20082;-62
2022/07/19 01:45:11;;;;;;;17.20;6.47;;;;;;;;;;5074650;28;20033;-62
2022/07/19 01:47:37;;;;;;;17.65;6.53;;;;;;;;;;5074994;28;20043;-62
2022/07/19 01:50:04;;;;;;;17.85;7.80;;;;;;;;;;5074794;28;20029;-62
2022/07/19 01:52:30;;;;;;;10.88;5.88;;;;;;;;;;5074884;28;20025;-62
2022/07/19 01:54:56;;;;;;;11.93;6.10;;;;;;;;;;5074270;28;20028;-62
2022/07/19 01:57:22;;;;;;;23.52;6.80;;;;;;;;;;5074853;28;20024;-62
2022/07/19 01:59:49;;;;;;;13.55;6.28;;;;;;;;;;5074634;28;20024;-62
2022/07/19 02:02:15;;;;;;;16.65;7.03;;;;;;;;;;5074647;28;20120;-63
2022/07/19 02:04:41;;;;;;;16.90;6.07;;;;;;;;;;5074588;28;20059;-63
2022/07/19 02:07:07;;;;;;;15.60;6.00;;;;;;;;;;5074499;28;20029;-63
2022/07/19 02:09:33;;;;;;;22.58;7.25;;;;;;;;;;5074355;28;20025;-62
2022/07/19 02:11:59;;;;;;;15.70;6.50;;;;;;;;;;5074205;28;20028;-62
2022/07/19 02:14:26;;;;;;;10.23;6.07;;;;;;;;;;5074323;28;20091;-62
2022/07/19 02:16:52;;;;;;;15.18;6.55;;;;;;;;;;5074470;28;20106;-62
2022/07/19 02:19:18;;;;;;;18.80;6.00;;;;;;;;;;5073976;28;20425;-62
2022/07/19 02:21:44;;;;;;;20.40;5.85;;;;;;;;;;5074111;28;20095;-62
2022/07/19 02:24:10;;;;;;;14.52;6.45;;;;;;;;;;5074368;28;20491;-62
2022/07/19 02:26:36;;;;;;;18.20;6.25;;;;;;;;;;5073972;28;20517;-62
2022/07/19 02:29:03;;;;;;;18.45;6.05;;;;;;;;;;5073416;28;20051;-62
2022/07/19 02:31:29;;;;;;;13.80;6.00;;;;;;;;;;5074065;28;20456;-64
2022/07/19 02:33:55;;;;;;;15.02;6.80;;;;;;;;;;5074037;28;20119;-63
2022/07/19 02:36:21;;;;;;;19.52;7.18;;;;;;;;;;5073695;28;20025;-63
2022/07/19 02:38:47;;;;;;;15.23;6.68;;;;;;;;;;5073808;28;20024;-63
2022/07/19 02:41:14;;;;;;;20.63;7.28;;;;;;;;;;5073810;28;20028;-64
2022/07/19 02:43:40;;;;;;;16.25;8.65;;;;;;;;;;5074155;28;20082;-64
2022/07/19 02:46:07;;;;;;;17.85;9.07;;;;;;;;;;5073836;28;20068;-64
2022/07/19 02:48:33;;;;;;;18.95;10.55;;;;;;;;;;5073651;28;20056;-64
2022/07/19 02:50:59;;;;;;;26.80;10.05;;;;;;;;;;5073203;28;20052;-64
2022/07/19 02:53:25;;;;;;;26.52;10.93;;;;;;;;;;5073674;28;20021;-64
2022/07/19 02:55:51;;;;;;;18.02;11.50;;;;;;;;;;5073678;28;20077;-64
2022/07/19 02:58:18;;;;;;;24.77;13.27;;;;;;;;;;5073376;28;20025;-64
2022/07/19 03:00:44;;;;;;;24.42;14.45;;;;;;;;;;5073542;28;20081;-64
2022/07/19 03:05:56;;;;;;;27.48;14.55;;;;;;;;;;5072982;28;20035;-64
2022/07/19 03:08:22;;;;;;;25.55;15.05;;;;;;;;;;5073293;28;20029;-64
2022/07/19 03:10:48;;;;;;;31.52;17.17;;;;;;;;;;5073249;28;20032;-63
2022/07/19 03:13:14;;;;;;;27.17;16.63;;;;;;;;;;5073091;28;20077;-63
2022/07/19 03:15:40;;;;;;;37.65;17.58;;;;;;;;;;5072326;28;20390;-63
2022/07/19 03:18:06;;;;;;;37.75;17.80;;;;;;;;;;5070850;28;20032;-63
2022/07/19 03:20:33;;;;;;;35.50;20.02;;;;;;;;;;5072690;28;20028;-63
2022/07/19 03:22:59;;;;;;;28.65;17.70;;;;;;;;;;5073103;28;20359;-63
2022/07/19 03:25:25;;;;;;;28.55;17.13;;;;;;;;;;5072988;28;20034;-63
2022/07/19 03:27:53;;;;;;;29.92;17.63;;;;;;;;;;5073315;28;20093;-63
2022/07/19 03:30:19;;;;;;;33.30;19.20;;;;;;;;;;5073195;28;20036;-63
2022/07/19 03:32:46;;;;;;;33.38;18.73;;;;;;;;;;5071769;28;20027;-63
2022/07/19 03:35:12;;;;;;;35.60;18.52;;;;;;;;;;5072506;28;20078;-63
2022/07/19 03:37:38;;;;;;;34.38;18.77;;;;;;;;;;5073373;28;20032;-63
2022/07/19 03:40:05;;;;;;;28.73;18.55;;;;;;;;;;5072455;28;20390;-63
2022/07/19 03:42:31;;;;;;;29.08;18.25;;;;;;;;;;5073142;28;20036;-63
2022/07/19 03:44:57;;;;;;;32.83;17.60;;;;;;;;;;5072822;28;20028;-63
2022/07/19 03:47:23;;;;;;;31.27;17.02;;;;;;;;;;5072513;28;20032;-63
2022/07/19 03:49:49;;;;;;;31.65;18.50;;;;;;;;;;5072221;28;20047;-63
2022/07/19 03:52:16;;;;;;;23.13;17.30;;;;;;;;;;5073076;28;20044;-63
2022/07/19 03:54:42;;;;;;;34.13;19.48;;;;;;;;;;5071967;28;20021;-63
2022/07/19 03:57:08;;;;;;;30.55;17.95;;;;;;;;;;5072308;28;20025;-63
2022/07/19 03:59:34;;;;;;;31.83;18.67;;;;;;;;;;5072684;28;20043;-63
2022/07/19 04:02:00;;;;;;;28.80;18.88;;;;;;;;;;5072010;28;20520;-63
2022/07/19 04:04:26;;;;;;;31.73;19.08;;;;;;;;;;5071754;28;20497;-63
2022/07/19 04:06:52;;;;;;;29.10;19.67;;;;;;;;;;5073073;28;20390;-63
2022/07/19 04:09:18;;;;;;;32.30;19.85;;;;;;;;;;5072936;28;20413;-63
2022/07/19 04:11:45;;;;;;;29.20;19.73;;;;;;;;;;5072299;28;20035;-63
2022/07/19 04:14:11;;;;;;;33.20;20.00;;;;;;;;;;5072320;28;20464;-63
2022/07/19 04:16:37;;;;;;;32.88;19.27;;;;;;;;;;5072130;28;20033;-63
2022/07/19 04:19:03;;;;;;;32.10;18.65;;;;;;;;;;5071819;28;20067;-63
2022/07/19 04:21:29;;;;;;;28.88;19.33;;;;;;;;;;5072102;28;20478;-63
2022/07/19 04:23:55;;;;;;;32.05;18.92;;;;;;;;;;5072251;28;20063;-63
2022/07/19 04:26:21;;;;;;;30.73;18.48;;;;;;;;;;5072036;28;20074;-63
2022/07/19 04:28:47;;;;;;;28.20;18.00;;;;;;;;;;5072145;28;20418;-63
2022/07/19 04:31:14;;;;;;;24.73;17.67;;;;;;;;;;5072063;28;20032;-63
2022/07/19 04:33:41;;;;;;;29.48;18.20;;;;;;;;;;5071943;28;20036;-63
2022/07/19 04:36:07;;;;;;;34.53;18.10;;;;;;;;;;5072227;28;20032;-63
2022/07/19 04:38:33;;;;;;;27.25;17.33;;;;;;;;;;5072030;28;20036;-63
2022/07/19 04:40:59;;;;;;;24.63;16.42;;;;;;;;;;5072203;28;20055;-63
2022/07/19 04:43:25;;;;;;;23.92;16.73;;;;;;;;;;5072019;28;20036;-63
2022/07/19 04:45:51;;;;;;;31.90;17.50;;;;;;;;;;5072128;28;20035;-63
2022/07/19 04:48:17;;;;;;;24.95;15.82;;;;;;;;;;5071705;28;20031;-63
2022/07/19 04:50:43;;;;;;;28.90;17.35;;;;;;;;;;5072078;28;20040;-63
2022/07/19 04:53:10;;;;;;;25.67;17.00;;;;;;;;;;5075542;28;20029;-63
2022/07/19 04:55:39;;;;;;;31.50;18.10;;;;;;;;;;5075913;28;20073;-63
2022/07/19 04:58:05;;;;;;;28.30;18.60;;;;;;;;;;5075798;28;20395;-63
2022/07/19 05:00:31;;;;;;;27.45;18.48;;;;;;;;;;5075601;28;20024;-63
2022/07/19 05:02:57;;;;;;;25.50;17.88;;;;;;;;;;5075743;28;20021;-63
2022/07/19 05:05:24;;;;;;;27.48;19.05;;;;;;;;;;5075601;28;20453;-63
2022/07/19 05:07:50;;;;;;;28.95;18.23;;;;;;;;;;5075839;28;20465;-63
2022/07/19 05:10:16;;;;;;;28.90;17.70;;;;;;;;;;5075555;28;20055;-63
2022/07/19 05:12:43;;;;;;;29.90;18.50;;;;;;;;;;5075463;28;20029;-63
2022/07/19 05:15:09;;;;;;;26.50;18.77;;;;;;;;;;5075498;28;20052;-63
2022/07/19 05:17:36;;;;;;;31.30;19.65;;;;;;;;;;5075358;28;20060;-63
2022/07/19 05:20:03;;;;;;;28.65;19.98;;;;;;;;;;5075052;28;20037;-63
2022/07/19 05:22:29;;;;;;;32.42;20.48;;;;;;;;;;5075338;28;20035;-63
2022/07/19 05:24:55;;;;;;;34.92;20.15;;;;;;;;;;5075535;28;20032;-63
2022/07/19 05:27:22;;;;;;;28.15;20.00;;;;;;;;;;5074984;28;20047;-63
2022/07/19 05:29:48;;;;;;;32.67;21.27;;;;;;;;;;5075100;28;20085;-63
2022/07/19 05:32:14;;;;;;;30.63;19.80;;;;;;;;;;5074875;28;20079;-63
2022/07/19 05:34:40;;;;;;;30.88;20.58;;;;;;;;;;5075121;28;20025;-63
2022/07/19 05:37:06;;;;;;;30.65;20.42;;;;;;;;;;5075206;28;20059;-63
2022/07/19 05:39:33;;;;;;;29.58;20.20;;;;;;;;;;5075308;28;20041;-63
2022/07/19 05:41:59;;;;;;;25.15;18.38;;;;;;;;;;5075062;28;20075;-63
2022/07/19 05:44:25;;;;;;;24.85;17.83;;;;;;;;;;5074836;28;20055;-63
2022/07/19 05:46:51;;;;;;;25.02;17.67;;;;;;;;;;5074803;28;20117;-63
2022/07/19 05:49:18;;;;;;;24.90;15.93;;;;;;;;;;5074755;28;20033;-63
2022/07/19 05:51:44;;;;;;;21.95;15.95;;;;;;;;;;5074833;28;20029;-63
2022/07/19 05:54:10;;;;;;;21.92;16.05;;;;;;;;;;5074851;28;20078;-63
2022/07/19 05:56:36;;;;;;;24.73;16.08;;;;;;;;;;5074745;28;20024;-63
2022/07/19 05:59:02;;;;;;;19.65;15.55;;;;;;;;;;5074748;28;20025;-63
2022/07/19 06:01:28;;;;;;;18.75;14.07;;;;;;;;;;5074322;28;20033;-63
2022/07/19 06:03:56;;;;;;;16.95;13.82;;;;;;;;;;5073815;28;20042;-63
2022/07/19 06:06:23;;;;;;;17.90;13.20;;;;;;;;;;5074444;28;20107;-63
2022/07/19 06:08:49;;;;;;;19.85;12.43;;;;;;;;;;5074804;28;20027;-63
2022/07/19 06:11:16;;;;;;;18.65;13.05;;;;;;;;;;5074352;28;20436;-63
2022/07/19 06:13:42;;;;;;;17.27;13.18;;;;;;;;;;5074039;28;20025;-63
2022/07/19 06:16:11;;;;;;;18.88;12.98;;;;;;;;;;5073381;28;20024;-63
2022/07/19 06:18:37;;;;;;;17.75;13.85;;;;;;;;;;5074199;28;20029;-63
2022/07/19 06:21:08;;;;;;;18.15;13.45;;;;;;;;;;5074384;28;20036;-63
2022/07/19 06:23:34;;;;;;;20.17;13.68;;;;;;;;;;5074161;28;20032;-63
2022/07/19 06:26:00;;;;;;;18.80;13.75;;;;;;;;;;5074232;28;20032;-63
2022/07/19 06:28:26;;;;;;;17.48;13.65;;;;;;;;;;5073560;28;20048;-63
2022/07/19 06:30:53;;;;;;;18.52;13.85;;;;;;;;;;5074128;28;20035;-63
2022/07/19 06:33:19;;;;;;;16.90;12.93;;;;;;;;;;5073906;28;20078;-65
2022/07/19 06:35:46;;;;;;;20.42;12.95;;;;;;;;;;5074227;28;20016;-63
2022/07/19 06:38:12;;;;;;;18.98;13.10;;;;;;;;;;5073821;28;20023;-63
2022/07/19 06:40:38;;;;;;;16.90;13.18;;;;;;;;;;5073764;28;20486;-63
2022/07/19 06:43:04;;;;;;;15.80;13.40;;;;;;;;;;5073580;28;20044;-63
2022/07/19 06:45:31;;;;;;;19.08;13.63;;;;;;;;;;5073731;28;20072;-63
2022/07/19 06:47:57;;;;;;;15.43;13.07;;;;;;;;;;5073906;28;20029;-63
2022/07/19 06:50:23;;;;;;;15.75;12.13;;;;;;;;;;5073487;28;20029;-63
2022/07/19 06:52:50;;;;;;;16.80;11.93;;;;;;;;;;5073650;28;20111;-63
2022/07/19 06:55:16;;;;;;;16.95;11.68;;;;;;;;;;5073661;28;20047;-63
2022/07/19 06:57:42;;;;;;;14.45;11.73;;;;;;;;;;5073216;28;20025;-63
2022/07/19 07:00:09;;;;;;;14.98;10.32;;;;;;;;;;5073720;28;20105;-63
2022/07/19 07:02:38;;;;;;;18.23;10.45;;;;;;;;;;5073374;28;20107;-63
2022/07/19 07:05:05;;;;;;;13.55;10.15;;;;;;;;;;5073464;28;20067;-63
2022/07/19 07:07:31;;;;;;;16.95;10.98;;;;;;;;;;5073316;28;20390;-63
2022/07/19 07:09:57;;;;;;;16.40;10.50;;;;;;;;;;5073240;28;20031;-62
2022/07/19 07:12:23;;;;;;;15.85;12.23;;;;;;;;;;5072862;28;20115;-62
2022/07/19 07:14:50;;;;;;;16.98;12.27;;;;;;;;;;5073281;28;20043;-62
2022/07/19 07:17:16;;;;;;;15.32;11.30;;;;;;;;;;5073152;28;20021;-63
2022/07/19 07:19:42;;;;;;;18.45;11.93;;;;;;;;;;5072772;28;20078;-62
2022/07/19 07:22:08;;;;;;;17.15;11.73;;;;;;;;;;5073219;28;20047;-63
2022/07/19 07:24:34;;;;;;;18.33;13.40;;;;;;;;;;5072965;28;20569;-62
2022/07/19 07:27:00;;;;;;;23.05;14.38;;;;;;;;;;5072564;28;20028;-63
2022/07/19 07:29:26;;;;;;;22.58;16.35;;;;;;;;;;5073130;28;20025;-62
2022/07/19 07:31:52;;;;;;;24.23;18.02;;;;;;;;;;5072739;28;20043;-63
2022/07/19 07:34:18;;;;;;;23.17;17.25;;;;;;;;;;5072909;28;20479;-63
2022/07/19 07:36:45;;;;;;;24.75;16.23;;;;;;;;;;5072832;28;20509;-63
2022/07/19 07:39:11;;;;;;;21.65;16.13;;;;;;;;;;5072836;28;20075;-63
2022/07/19 07:41:37;;;;;;;21.60;16.50;;;;;;;;;;5072466;28;20123;-63
2022/07/19 07:44:04;;;;;;;21.58;15.77;;;;;;;;;;5072806;28;20107;-63
2022/07/19 07:46:30;;;;;;;25.35;16.58;;;;;;;;;;5072730;28;20028;-63
2022/07/19 07:48:57;;;;;;;22.77;15.52;;;;;;;;;;5072851;28;20048;-63
2022/07/19 07:51:23;;;;;;;40.13;17.88;;;;;;;;;;5072427;28;20036;-63
2022/07/19 07:53:49;;;;;;;41.60;19.88;;;;;;;;;;5072658;28;20479;-63
2022/07/19 07:56:15;;;;;;;38.25;19.23;;;;;;;;;;5072205;28;20036;-63
2022/07/19 07:58:41;;;;;;;31.20;19.05;;;;;;;;;;5072326;28;20028;-63
2022/07/19 08:01:07;;;;;;;32.67;18.83;;;;;;;;;;5072569;28;20434;-63
2022/07/19 08:03:33;;;;;;;30.48;20.27;;;;;;;;;;5072428;28;20028;-63
2022/07/19 08:05:59;;;;;;;33.83;21.20;;;;;;;;;;5072403;28;20039;-63
2022/07/19 08:08:29;;;;;;;31.52;22.77;;;;;;;;;;5072415;28;20387;-63
2022/07/19 08:10:55;;;;;;;32.15;23.40;;;;;;;;;;5072032;28;20025;-63
2022/07/19 08:13:22;;;;;;;32.47;23.70;;;;;;;;;;5071049;28;20078;-63
2022/07/19 08:15:48;;;;;;;33.03;23.90;;;;;;;;;;5071118;28;20028;-63
2022/07/19 08:18:14;;;;;;;37.75;25.92;;;;;;;;;;5072318;28;20433;-63
2022/07/19 08:20:41;;;;;;;37.15;25.08;;;;;;;;;;5072320;28;20032;-63
2022/07/19 08:23:07;;;;;;;34.88;24.88;;;;;;;;;;5072205;28;20032;-63
2022/07/19 08:25:34;;;;;;;36.38;26.40;;;;;;;;;;5072092;28;20071;-63
2022/07/19 08:28:00;;;;;;;37.20;26.70;;;;;;;;;;5078447;28;20052;-63
2022/07/19 08:30:26;;;;;;;47.70;27.98;;;;;;;;;;5078731;28;20068;-63
2022/07/19 08:32:53;;;;;;;41.97;28.10;;;;;;;;;;5078834;28;20021;-63
2022/07/19 08:35:19;;;;;;;38.50;28.58;;;;;;;;;;5078799;28;20041;-63
2022/07/19 08:37:45;;;;;;;40.30;27.13;;;;;;;;;;5078667;28;20028;-63
2022/07/19 08:40:11;;;;;;;35.90;25.90;;;;;;;;;;5077476;28;20024;-63
2022/07/19 08:42:38;;;;;;;38.30;26.42;;;;;;;;;;5078540;28;20405;-63
2022/07/19 08:45:06;;;;;;;39.83;27.83;;;;;;;;;;5078854;28;20028;-63
2022/07/19 08:47:32;;;;;;;47.97;26.45;;;;;;;;;;5078605;28;20024;-63
2022/07/19 08:50:02;;;;;;;36.03;26.58;;;;;;;;;;5077393;28;20457;-63
2022/07/19 08:52:28;;;;;;;38.85;27.20;;;;;;;;;;5078576;28;20039;-63
2022/07/19 08:54:56;;;;;;;35.65;26.55;;;;;;;;;;5078374;28;20020;-63
2022/07/19 09:00:07;;;;;;;35.13;26.15;;;;;;;;;;5078799;28;20036;-63
2022/07/19 09:02:33;;;;;;;37.33;27.08;;;;;;;;;;5078607;28;20028;-63
2022/07/19 09:05:07;;;;;;;37.45;25.83;;;;;;;;;;5078616;28;20547;-63
2022/07/19 09:07:37;;;;;;;38.97;26.33;;;;;;;;;;5078311;28;20041;-63
2022/07/19 09:10:18;;;;;;;40.35;25.60;;;;;;;;;;5078136;28;20059;-63
2022/07/19 09:12:59;;;;;;;35.95;25.05;;;;;;;;;;5078403;28;20036;-63
2022/07/19 09:15:37;;;;;;;32.47;25.27;;;;;;;;;;5078608;28;20105;-63
2022/07/19 09:18:08;;;;;;;35.08;24.10;;;;;;;;;;5078254;28;20563;-63
2022/07/19 09:20:34;;;;;;;35.20;25.40;;;;;;;;;;5078281;28;20486;-63
2022/07/19 09:23:01;;;;;;;39.53;24.88;;;;;;;;;;5077810;28;20500;-63
2022/07/19 09:25:38;;;;;;;40.58;24.88;;;;;;;;;;5078701;28;20055;-63
2022/07/19 09:28:04;;;;;;;31.08;24.65;;;;;;;;;;5078277;28;20048;-63
2022/07/19 09:30:36;;;;;;;32.58;24.38;;;;;;;;;;5078123;28;20033;-64
2022/07/19 09:33:16;;;;;;;36.15;25.92;;;;;;;;;;5078306;28;20050;-63
2022/07/19 09:35:47;;;;;;;37.17;27.13;;;;;;;;;;5078218;28;20091;-63
2022/07/19 09:38:24;;;;;;;37.60;25.30;;;;;;;;;;5075319;28;20037;-64
2022/07/19 09:40:53;;;;;;;39.38;28.13;;;;;;;;;;5073935;28;20064;-63
2022/07/19 09:43:22;;;;;;;39.13;25.70;;;;;;;;;;5075013;28;20123;-63
2022/07/19 09:45:48;;;;;;;44.95;28.52;;;;;;;;;;5074796;28;20398;-63
2022/07/19 09:48:16;;;;;;;35.40;27.27;;;;;;;;;;5075098;28;20034;-63
2022/07/19 09:50:44;;;;;;;41.20;26.30;;;;;;;;;;5074851;28;20510;-63
2022/07/19 09:53:10;;;;;;;38.42;26.98;;;;;;;;;;5074555;28;20031;-63
2022/07/19 09:55:36;;;;;;;34.67;26.73;;;;;;;;;;5074787;28;20409;-63
2022/07/19 09:58:03;;;;;;;43.85;27.85;;;;;;;;;;5074664;28;20012;-64
2022/07/19 10:00:30;;;;;;;38.85;27.83;;;;;;;;;;5074736;28;20025;-64
2022/07/19 10:02:57;;;;;;;34.03;25.85;;;;;;;;;;5074512;28;20034;-63
2022/07/19 10:05:24;;;;;;;41.05;27.63;;;;;;;;;;5074732;28;20028;-64
2022/07/19 10:07:51;;;;;;;36.20;26.02;;;;;;;;;;5074165;28;20037;-64
2022/07/19 10:10:18;;;;;;;40.67;25.52;;;;;;;;;;5074716;28;20068;-64
2022/07/19 10:12:45;;;;;;;33.03;24.77;;;;;;;;;;5074371;28;20024;-64
2022/07/19 10:15:12;;;;;;;35.10;25.05;;;;;;;;;;5074522;28;20020;-64
2022/07/19 10:17:57;;;;;;;36.05;25.48;;;;;;;;;;5074475;28;20024;-64
2022/07/19 10:20:24;;;;;;;34.33;26.52;;;;;;;;;;5074083;28;20032;-64
2022/07/19 10:22:51;;;;;;;36.13;25.63;;;;;;;;;;5074249;28;20035;-64
2022/07/19 10:25:18;;;;;;;38.90;25.80;;;;;;;;;;5074664;28;20043;-64
2022/07/19 10:27:44;;;;;;;39.35;25.48;;;;;;;;;;5073963;28;20080;-64
2022/07/19 10:30:10;;;;;;;37.95;25.77;;;;;;;;;;5074289;28;20079;-64
2022/07/19 10:32:38;;;;;;;36.70;27.05;;;;;;;;;;5074068;28;20032;-64
2022/07/19 10:35:23;;;;;;;36.03;26.75;;;;;;;;;;5073795;28;20474;-64
2022/07/19 10:37:50;;;;;;;36.45;26.98;;;;;;;;;;5073963;28;20108;-64
2022/07/19 10:40:35;;;;;;;36.08;25.77;;;;;;;;;;5074090;28;20107;-64
2022/07/19 10:43:07;;;;;;;38.67;27.70;;;;;;;;;;5074004;28;20036;-64
2022/07/19 10:45:34;;;;;;;42.33;27.27;;;;;;;;;;5073815;28;20126;-64
2022/07/19 10:48:01;;;;;;;35.95;26.52;;;;;;;;;;5073727;28;20494;-64
2022/07/19 10:50:44;;;;;;;56.25;38.70;;;;;;;;;;5073034;28;20024;-64
2022/07/19 10:53:10;;;;;;;66.15;47.35;;;;;;;;;;5073676;28;20119;-64
2022/07/19 10:55:36;;;;;;;93.65;66.78;;;;;;;;;;5073456;28;20035;-64
2022/07/19 10:58:05;;;;;;;122.85;85.28;;;;;;;;;;5073574;28;20441;-64
2022/07/19 11:00:32;;;;;;;126.50;87.47;;;;;;;;;;5073568;28;20045;-64
2022/07/19 11:03:17;;;;;;;122.93;81.22;;;;;;;;;;5073538;28;20566;-64
2022/07/19 11:05:56;;;;;;;122.47;82.35;;;;;;;;;;5072971;28;20547;-64
2022/07/19 11:08:33;;;;;;;126.85;81.60;;;;;;;;;;5073390;28;20078;-64
2022/07/19 11:11:06;;;;;;;123.88;82.88;;;;;;;;;;5073315;28;20440;-64
2022/07/19 11:13:33;;;;;;;127.00;82.53;;;;;;;;;;5073509;28;20028;-64
2022/07/19 11:16:00;;;;;;;143.00;86.45;;;;;;;;;;5073034;28;20052;-64
2022/07/19 11:18:26;;;;;;;360.38;208.05;;;;;;;;;;5072672;28;20168;-64
2022/07/19 11:20:52;;;;;;;396.63;227.80;;;;;;;;;;5073092;28;20410;-64
2022/07/19 11:23:20;;;;;;;362.70;210.07;;;;;;;;;;5073113;28;20907;-64
2022/07/19 11:25:49;;;;;;;261.15;151.35;;;;;;;;;;5072876;28;20039;-64
2022/07/19 11:28:24;;;;;;;228.82;128.57;;;;;;;;;;5072929;28;20460;-64
2022/07/19 11:30:51;;;;;;;202.82;117.47;;;;;;;;;;5072786;28;20032;-64
2022/07/19 11:33:19;;;;;;;192.25;112.10;;;;;;;;;;5072616;28;20024;-64
2022/07/19 11:35:54;;;;;;;193.93;110.78;;;;;;;;;;5072871;28;20406;-64
2022/07/19 11:38:20;;;;;;;151.50;89.63;;;;;;;;;;5073060;28;20425;-64
2022/07/19 11:40:46;;;;;;;126.10;71.38;;;;;;;;;;5072598;28;20028;-64
2022/07/19 11:43:12;;;;;;;110.75;63.17;;;;;;;;;;5072849;28;20028;-64
2022/07/19 11:45:46;;;;;;;81.50;46.97;;;;;;;;;;5072830;28;20060;-64
2022/07/19 11:48:12;;;;;;;71.97;43.80;;;;;;;;;;5072485;28;20111;-64
2022/07/19 11:50:40;;;;;;;61.80;35.15;;;;;;;;;;5072426;28;20029;-64
2022/07/19 11:53:07;;;;;;;49.03;29.77;;;;;;;;;;5072487;28;20025;-64
2022/07/19 11:55:38;;;;;;;43.80;24.95;;;;;;;;;;5072714;28;20021;-64
2022/07/19 11:58:08;;;;;;;41.25;21.88;;;;;;;;;;5072539;28;20115;-64
2022/07/19 12:00:35;;;;;;;28.77;19.45;;;;;;;;;;5072300;28;20036;-65
2022/07/19 12:03:06;;;;;;;37.95;19.92;;;;;;;;;;5071675;28;20529;-64
2022/07/19 12:05:36;;;;;;;29.70;16.88;;;;;;;;;;5072465;28;20175;-64
2022/07/19 12:08:06;;;;;;;25.52;15.95;;;;;;;;;;5072334;28;20039;-63
2022/07/19 12:10:33;;;;;;;32.85;15.18;;;;;;;;;;5072250;28;20039;-64
2022/07/19 12:13:00;;;;;;;34.00;14.43;;;;;;;;;;5072323;28;20036;-64
2022/07/19 12:15:26;;;;;;;31.90;14.88;;;;;;;;;;5072454;28;20029;-64
2022/07/19 12:17:59;;;;;;;30.02;14.05;;;;;;;;;;5071840;28;20020;-64
2022/07/19 12:20:25;;;;;;;27.02;12.98;;;;;;;;;;5072559;28;20117;-63
2022/07/19 12:22:52;;;;;;;26.58;13.25;;;;;;;;;;5072440;28;20052;-64
2022/07/19 12:25:35;;;;;;;27.58;12.88;;;;;;;;;;5072361;28;20039;-64
2022/07/19 12:28:02;;;;;;;29.83;13.45;;;;;;;;;;5070634;28;20123;-64
2022/07/19 12:30:29;;;;;;;31.02;14.63;;;;;;;;;;5072214;28;20048;-64
2022/07/19 12:33:06;;;;;;;32.70;14.98;;;;;;;;;;5071918;28;20074;-64
2022/07/19 12:35:42;;;;;;;27.73;13.82;;;;;;;;;;5072452;28;20016;-64
2022/07/19 12:38:11;;;;;;;26.70;13.60;;;;;;;;;;5072047;28;20028;-64
2022/07/19 12:40:37;;;;;;;26.75;14.57;;;;;;;;;;5072084;28;20115;-64
2022/07/19 12:43:03;;;;;;;29.42;14.15;;;;;;;;;;5072082;28;20111;-64
2022/07/19 12:45:34;;;;;;;30.08;14.55;;;;;;;;;;5053852;28;20037;-64
2022/07/19 12:48:01;;;;;;;28.15;13.32;;;;;;;;;;5072072;28;20032;-64
2022/07/19 12:50:30;;;;;;;31.90;14.50;;;;;;;;;;5071875;28;20024;-64
2022/07/19 12:52:57;;;;;;;25.90;12.05;;;;;;;;;;5071912;28;20035;-64
2022/07/19 12:55:24;;;;;;;23.58;12.27;;;;;;;;;;5072030;28;20028;-64
2022/07/19 12:57:51;;;;;;;31.45;13.32;;;;;;;;;;5071944;28;20032;-64
2022/07/19 13:00:18;;;;;;;28.52;13.23;;;;;;;;;;5071588;28;20021;-64
2022/07/19 13:02:46;;;;;;;36.60;13.25;;;;;;;;;;5072001;28;20028;-64
2022/07/19 13:05:12;;;;;;;24.20;12.05;;;;;;;;;;5071698;28;20506;-64
2022/07/19 13:07:38;;;;;;;25.02;11.55;;;;;;;;;;5071984;28;20043;-64
2022/07/19 13:10:04;;;;;;;30.60;13.18;;;;;;;;;;5071677;28;20035;-64
2022/07/19 13:12:31;;;;;;;26.95;12.68;;;;;;;;;;5070883;28;20078;-64
2022/07/19 13:14:57;;;;;;;28.25;13.05;;;;;;;;;;5074425;28;20411;-64
2022/07/19 13:17:23;;;;;;;29.90;12.75;;;;;;;;;;5075501;28;20036;-64
2022/07/19 13:19:49;;;;;;;25.17;12.15;;;;;;;;;;5074544;28;20111;-64
2022/07/19 13:22:15;;;;;;;28.13;11.73;;;;;;;;;;5075809;28;20491;-64
2022/07/19 13:24:41;;;;;;;28.65;12.55;;;;;;;;;;5075313;28;20029;-64
2022/07/19 13:27:08;;;;;;;22.05;12.32;;;;;;;;;;5075422;28;20060;-64
2022/07/19 13:29:34;;;;;;;25.38;11.68;;;;;;;;;;5075470;28;20115;-64
2022/07/19 13:32:00;;;;;;;27.15;13.45;;;;;;;;;;5075687;28;20375;-65
2022/07/19 13:34:27;;;;;;;31.05;12.75;;;;;;;;;;5075567;28;20067;-64
2022/07/19 13:36:53;;;;;;;24.88;13.23;;;;;;;;;;5075123;28;20035;-64
2022/07/19 13:39:19;;;;;;;23.92;12.05;;;;;;;;;;5074966;28;20101;-64
2022/07/19 13:41:45;;;;;;;30.13;12.63;;;;;;;;;;5075151;28;20479;-65
2022/07/19 13:44:11;;;;;;;27.58;11.20;;;;;;;;;;5074592;28;20025;-65
2022/07/19 13:46:37;;;;;;;26.48;11.77;;;;;;;;;;5074912;28;20396;-65
2022/07/19 13:49:04;;;;;;;22.02;11.55;;;;;;;;;;5075077;28;20032;-65
2022/07/19 13:51:30;;;;;;;24.70;12.13;;;;;;;;;;5074981;28;20032;-65
2022/07/19 13:53:56;;;;;;;21.75;10.88;;;;;;;;;;5074853;28;20398;-64
2022/07/19 13:56:22;;;;;;;28.02;11.20;;;;;;;;;;5075066;28;20056;-65
2022/07/19 13:58:49;;;;;;;28.35;10.95;;;;;;;;;;5074546;28;20483;-65
2022/07/19 14:01:15;;;;;;;24.23;10.68;;;;;;;;;;5074689;28;20020;-64
2022/07/19 14:03:41;;;;;;;23.95;11.27;;;;;;;;;;5074714;28;20151;-65
2022/07/19 14:06:08;;;;;;;23.05;10.30;;;;;;;;;;5074679;28;20033;-64
2022/07/19 14:08:34;;;;;;;22.15;10.55;;;;;;;;;;5074636;28;20106;-65
2022/07/19 14:11:00;;;;;;;23.80;10.63;;;;;;;;;;5074491;28;20111;-65
2022/07/19 14:13:27;;;;;;;24.10;10.48;;;;;;;;;;5074194;28;20020;-65
2022/07/19 14:15:53;;;;;;;19.33;10.18;;;;;;;;;;5074537;28;20048;-64
2022/07/19 14:18:20;;;;;;;23.50;10.77;;;;;;;;;;5074452;28;20028;-65
2022/07/19 14:20:46;;;;;;;19.40;9.80;;;;;;;;;;5074492;28;20119;-65
2022/07/19 14:23:12;;;;;;;18.35;10.07;;;;;;;;;;5074280;28;20111;-65